world map with FDST marked

FDST - Airport

This information may not be accurate or current and is not valid for navigation or flight planning. No warranty of fitness for any purpose is made or implied.

flag of Swaziland

Donate via PayPal

Additional information is available on the NEW Great Circle Mapper

Location
City:  Siteki, Lubombo, Swaziland
Name:Siteki Airfield
ICAO:FDST

Details
Type:Airport (Aerodrome, Airfield)
Latitude:26°28'18"S (-26.471666)
Longitude:31°56'33"E (31.942500)
Elevation:2220 ft (677 m)
Runways:1
Longest:2789 ft (850 m)

Time
Timezone:UTC+2 (DST+4)
Local Time:

Weather
METAR:FDST  181800Z AUTO 00000KT //// // ////// 24/20 Q1011

Related Locations
Nearby:
Farthest:HNM: 11803 mi / 18995 km
Hana, Maui, HI, US

Find:

   beyond  
but within

Other Information
Maps:
Sources:

  


 


Great Circle Mapper   Great Circle Mapper
Great Circle Mapper FAQ   Great Circle Mapper FAQ
  Karl's Home Page
KLSē   KLSē Home
   GC on Facebook
Airlines of the World   Airlines of the World
Donate via PayPal


Copyright © 2004-2018, Karl L. Swartz. All rights reserved.
All trademarks mentioned herein belong to their respective owners.

Please see credits for attribution and copyright information.

Karl Swartz <karl@kls2.com>
  Powered by FreeBSD
Valid HTML 4.01!
Labeled with ICRA
hCard Microformat
Geo Microformat